sensor_id;sensor_type;location;lat;lon;timestamp;P1;durP1;ratioP1;P2;durP2;ratioP2
36133;SDS011;40492;43.524;-1.510;2022-09-09T00:11:17;22.38;;;4.38;;
36133;SDS011;40492;43.524;-1.510;2022-09-09T00:13:51;23.87;;;4.67;;
36133;SDS011;40492;43.524;-1.510;2022-09-09T00:16:24;16.40;;;4.00;;
36133;SDS011;40492;43.524;-1.510;2022-09-09T00:21:38;27.40;;;4.50;;
36133;SDS011;40492;43.524;-1.510;2022-09-09T00:24:12;12.77;;;4.18;;
36133;SDS011;40492;43.524;-1.510;2022-09-09T00:27:04;16.33;;;3.83;;
36133;SDS011;40492;43.524;-1.510;2022-09-09T00:30:12;19.45;;;4.82;;
36133;SDS011;40492;43.524;-1.510;2022-09-09T00:32:46;26.73;;;5.10;;
36133;SDS011;40492;43.524;-1.510;2022-09-09T00:37:43;24.48;;;4.43;;
36133;SDS011;40492;43.524;-1.510;2022-09-09T00:40:23;18.48;;;4.63;;
36133;SDS011;40492;43.524;-1.510;2022-09-09T00:43:28;15.75;;;3.83;;
36133;SDS011;40492;43.524;-1.510;2022-09-09T00:46:10;14.63;;;2.45;;
36133;SDS011;40492;43.524;-1.510;2022-09-09T01:02:18;6.70;;;1.52;;
36133;SDS011;40492;43.524;-1.510;2022-09-09T01:04:57;10.50;;;2.10;;
36133;SDS011;40492;43.524;-1.510;2022-09-09T01:07:32;8.05;;;1.55;;
36133;SDS011;40492;43.524;-1.510;2022-09-09T01:09:59;15.77;;;2.33;;
36133;SDS011;40492;43.524;-1.510;2022-09-09T01:18:00;8.57;;;2.30;;
36133;SDS011;40492;43.524;-1.510;2022-09-09T01:23:29;10.38;;;1.88;;
36133;SDS011;40492;43.524;-1.510;2022-09-09T01:26:21;10.43;;;2.67;;
36133;SDS011;40492;43.524;-1.510;2022-09-09T01:29:00;15.02;;;3.53;;
36133;SDS011;40492;43.524;-1.510;2022-09-09T01:31:27;10.02;;;3.25;;
36133;SDS011;40492;43.524;-1.510;2022-09-09T01:34:00;13.50;;;3.85;;
36133;SDS011;40492;43.524;-1.510;2022-09-09T01:36:28;10.60;;;3.25;;
36133;SDS011;40492;43.524;-1.510;2022-09-09T01:38:58;14.05;;;3.40;;
36133;SDS011;40492;43.524;-1.510;2022-09-09T01:41:24;12.88;;;3.72;;
36133;SDS011;40492;43.524;-1.510;2022-09-09T01:43:52;14.00;;;4.05;;
36133;SDS011;40492;43.524;-1.510;2022-09-09T01:46:21;8.18;;;3.03;;
36133;SDS011;40492;43.524;-1.510;2022-09-09T01:48:48;10.45;;;3.58;;
36133;SDS011;40492;43.524;-1.510;2022-09-09T01:51:17;10.05;;;3.35;;
36133;SDS011;40492;43.524;-1.510;2022-09-09T01:53:43;12.00;;;3.88;;
36133;SDS011;40492;43.524;-1.510;2022-09-09T02:01:53;8.82;;;4.13;;
36133;SDS011;40492;43.524;-1.510;2022-09-09T02:06:49;11.60;;;4.00;;
36133;SDS011;40492;43.524;-1.510;2022-09-09T02:09:21;8.85;;;3.60;;
36133;SDS011;40492;43.524;-1.510;2022-09-09T02:11:49;11.63;;;3.55;;
36133;SDS011;40492;43.524;-1.510;2022-09-09T02:14:25;10.82;;;3.70;;
36133;SDS011;40492;43.524;-1.510;2022-09-09T02:17:01;10.82;;;4.35;;
36133;SDS011;40492;43.524;-1.510;2022-09-09T02:19:35;14.50;;;4.78;;
36133;SDS011;40492;43.524;-1.510;2022-09-09T02:22:08;14.85;;;5.10;;
36133;SDS011;40492;43.524;-1.510;2022-09-09T02:24:35;15.63;;;5.40;;
36133;SDS011;40492;43.524;-1.510;2022-09-09T02:27:04;14.55;;;5.38;;
36133;SDS011;40492;43.524;-1.510;2022-09-09T02:29:34;21.48;;;5.85;;
36133;SDS011;40492;43.524;-1.510;2022-09-09T02:32:07;18.63;;;4.93;;
36133;SDS011;40492;43.524;-1.510;2022-09-09T02:34:39;14.23;;;5.03;;
36133;SDS011;40492;43.524;-1.510;2022-09-09T02:37:08;15.55;;;4.40;;
36133;SDS011;40492;43.524;-1.510;2022-09-09T02:39:36;14.15;;;5.03;;
36133;SDS011;40492;43.524;-1.510;2022-09-09T02:42:03;17.85;;;4.43;;
36133;SDS011;40492;43.524;-1.510;2022-09-09T02:44:29;12.85;;;4.82;;
36133;SDS011;40492;43.524;-1.510;2022-09-09T02:49:41;21.77;;;6.40;;
36133;SDS011;40492;43.524;-1.510;2022-09-09T02:52:40;42.22;;;7.97;;
36133;SDS011;40492;43.524;-1.510;2022-09-09T02:58:08;83.25;;;9.88;;
36133;SDS011;40492;43.524;-1.510;2022-09-09T03:00:37;52.38;;;8.50;;
36133;SDS011;40492;43.524;-1.510;2022-09-09T03:03:05;39.38;;;6.10;;
36133;SDS011;40492;43.524;-1.510;2022-09-09T03:05:31;23.80;;;4.50;;
36133;SDS011;40492;43.524;-1.510;2022-09-09T03:07:58;26.27;;;5.10;;
36133;SDS011;40492;43.524;-1.510;2022-09-09T03:10:24;22.35;;;4.60;;
36133;SDS011;40492;43.524;-1.510;2022-09-09T03:12:50;24.45;;;4.53;;
36133;SDS011;40492;43.524;-1.510;2022-09-09T03:15:15;26.05;;;4.88;;
36133;SDS011;40492;43.524;-1.510;2022-09-09T03:17:41;23.30;;;4.80;;
36133;SDS011;40492;43.524;-1.510;2022-09-09T03:20:08;31.67;;;6.00;;
36133;SDS011;40492;43.524;-1.510;2022-09-09T03:22:34;17.02;;;4.57;;
36133;SDS011;40492;43.524;-1.510;2022-09-09T03:25:00;30.45;;;4.75;;
36133;SDS011;40492;43.524;-1.510;2022-09-09T03:27:28;23.42;;;4.88;;
36133;SDS011;40492;43.524;-1.510;2022-09-09T03:29:54;30.65;;;5.25;;
36133;SDS011;40492;43.524;-1.510;2022-09-09T03:32:21;22.05;;;4.47;;
36133;SDS011;40492;43.524;-1.510;2022-09-09T03:34:47;14.43;;;3.83;;
36133;SDS011;40492;43.524;-1.510;2022-09-09T03:37:17;21.13;;;4.70;;
36133;SDS011;40492;43.524;-1.510;2022-09-09T03:39:47;21.00;;;4.68;;
36133;SDS011;40492;43.524;-1.510;2022-09-09T03:42:13;19.15;;;3.85;;
36133;SDS011;40492;43.524;-1.510;2022-09-09T03:44:44;20.40;;;4.68;;
36133;SDS011;40492;43.524;-1.510;2022-09-09T03:47:14;24.60;;;5.18;;
36133;SDS011;40492;43.524;-1.510;2022-09-09T03:49:40;23.45;;;4.53;;
36133;SDS011;40492;43.524;-1.510;2022-09-09T03:52:06;14.90;;;4.22;;
36133;SDS011;40492;43.524;-1.510;2022-09-09T03:54:33;16.58;;;3.67;;
36133;SDS011;40492;43.524;-1.510;2022-09-09T03:56:59;21.88;;;4.25;;
36133;SDS011;40492;43.524;-1.510;2022-09-09T03:59:25;21.40;;;5.13;;
36133;SDS011;40492;43.524;-1.510;2022-09-09T04:01:51;17.55;;;4.07;;
36133;SDS011;40492;43.524;-1.510;2022-09-09T04:04:18;27.40;;;4.65;;
36133;SDS011;40492;43.524;-1.510;2022-09-09T04:06:45;26.20;;;4.63;;
36133;SDS011;40492;43.524;-1.510;2022-09-09T04:09:13;14.95;;;2.83;;
36133;SDS011;40492;43.524;-1.510;2022-09-09T04:11:39;20.70;;;3.72;;
36133;SDS011;40492;43.524;-1.510;2022-09-09T04:14:05;20.73;;;3.63;;
36133;SDS011;40492;43.524;-1.510;2022-09-09T04:16:32;17.60;;;2.83;;
36133;SDS011;40492;43.524;-1.510;2022-09-09T04:18:58;17.58;;;3.10;;
36133;SDS011;40492;43.524;-1.510;2022-09-09T04:21:25;16.10;;;3.45;;
36133;SDS011;40492;43.524;-1.510;2022-09-09T04:23:51;17.67;;;3.17;;
36133;SDS011;40492;43.524;-1.510;2022-09-09T04:26:17;17.60;;;3.78;;
36133;SDS011;40492;43.524;-1.510;2022-09-09T04:28:43;18.05;;;3.47;;
36133;SDS011;40492;43.524;-1.510;2022-09-09T04:31:13;16.88;;;3.88;;
36133;SDS011;40492;43.524;-1.510;2022-09-09T04:33:43;20.83;;;3.13;;
36133;SDS011;40492;43.524;-1.510;2022-09-09T04:36:08;16.90;;;3.15;;
36133;SDS011;40492;43.524;-1.510;2022-09-09T04:38:34;17.13;;;3.20;;
36133;SDS011;40492;43.524;-1.510;2022-09-09T04:41:01;21.38;;;3.05;;
36133;SDS011;40492;43.524;-1.510;2022-09-09T04:43:26;18.77;;;3.30;;
36133;SDS011;40492;43.524;-1.510;2022-09-09T04:45:52;14.40;;;2.33;;
36133;SDS011;40492;43.524;-1.510;2022-09-09T04:48:19;12.00;;;2.65;;
36133;SDS011;40492;43.524;-1.510;2022-09-09T04:50:55;23.98;;;3.55;;
36133;SDS011;40492;43.524;-1.510;2022-09-09T04:53:26;9.23;;;2.63;;
36133;SDS011;40492;43.524;-1.510;2022-09-09T04:56:00;11.40;;;2.60;;
36133;SDS011;40492;43.524;-1.510;2022-09-09T04:58:45;13.07;;;3.10;;
36133;SDS011;40492;43.524;-1.510;2022-09-09T05:01:15;18.17;;;3.05;;
36133;SDS011;40492;43.524;-1.510;2022-09-09T05:03:43;18.50;;;3.10;;
36133;SDS011;40492;43.524;-1.510;2022-09-09T05:06:11;10.50;;;2.85;;
36133;SDS011;40492;43.524;-1.510;2022-09-09T05:08:41;15.07;;;3.05;;
36133;SDS011;40492;43.524;-1.510;2022-09-09T05:13:48;12.27;;;2.47;;
36133;SDS011;40492;43.524;-1.510;2022-09-09T05:16:15;13.48;;;2.92;;
36133;SDS011;40492;43.524;-1.510;2022-09-09T05:18:41;19.67;;;3.05;;
36133;SDS011;40492;43.524;-1.510;2022-09-09T05:21:08;9.40;;;2.28;;
36133;SDS011;40492;43.524;-1.510;2022-09-09T05:23:35;15.27;;;3.47;;
36133;SDS011;40492;43.524;-1.510;2022-09-09T05:26:02;14.85;;;2.95;;
36133;SDS011;40492;43.524;-1.510;2022-09-09T05:28:29;15.68;;;2.95;;
36133;SDS011;40492;43.524;-1.510;2022-09-09T05:30:56;16.90;;;3.30;;
36133;SDS011;40492;43.524;-1.510;2022-09-09T05:33:28;15.45;;;3.40;;
36133;SDS011;40492;43.524;-1.510;2022-09-09T05:35:55;15.93;;;3.33;;
36133;SDS011;40492;43.524;-1.510;2022-09-09T05:38:22;17.45;;;3.15;;
36133;SDS011;40492;43.524;-1.510;2022-09-09T05:40:50;15.45;;;3.60;;
36133;SDS011;40492;43.524;-1.510;2022-09-09T05:43:17;23.95;;;4.82;;
36133;SDS011;40492;43.524;-1.510;2022-09-09T05:45:45;18.92;;;4.10;;
36133;SDS011;40492;43.524;-1.510;2022-09-09T05:48:13;19.33;;;3.90;;
36133;SDS011;40492;43.524;-1.510;2022-09-09T05:50:42;18.08;;;4.25;;
36133;SDS011;40492;43.524;-1.510;2022-09-09T05:53:10;23.17;;;4.03;;
36133;SDS011;40492;43.524;-1.510;2022-09-09T05:55:36;15.25;;;3.60;;
36133;SDS011;40492;43.524;-1.510;2022-09-09T05:58:02;22.42;;;4.90;;
36133;SDS011;40492;43.524;-1.510;2022-09-09T06:00:28;19.60;;;4.22;;
36133;SDS011;40492;43.524;-1.510;2022-09-09T06:02:56;21.80;;;4.55;;
36133;SDS011;40492;43.524;-1.510;2022-09-09T06:05:22;22.15;;;4.78;;
36133;SDS011;40492;43.524;-1.510;2022-09-09T06:07:52;20.35;;;4.95;;
36133;SDS011;40492;43.524;-1.510;2022-09-09T06:10:19;24.08;;;4.57;;
36133;SDS011;40492;43.524;-1.510;2022-09-09T06:12:45;29.88;;;5.10;;
36133;SDS011;40492;43.524;-1.510;2022-09-09T06:15:11;23.67;;;5.32;;
36133;SDS011;40492;43.524;-1.510;2022-09-09T06:17:37;25.48;;;5.10;;
36133;SDS011;40492;43.524;-1.510;2022-09-09T06:20:04;25.40;;;5.53;;
36133;SDS011;40492;43.524;-1.510;2022-09-09T06:22:30;29.13;;;4.40;;
36133;SDS011;40492;43.524;-1.510;2022-09-09T06:24:56;13.82;;;2.70;;
36133;SDS011;40492;43.524;-1.510;2022-09-09T06:27:22;22.25;;;3.65;;
36133;SDS011;40492;43.524;-1.510;2022-09-09T06:29:48;24.83;;;2.70;;
36133;SDS011;40492;43.524;-1.510;2022-09-09T06:32:14;20.27;;;2.05;;
36133;SDS011;40492;43.524;-1.510;2022-09-09T06:34:40;19.20;;;3.15;;
36133;SDS011;40492;43.524;-1.510;2022-09-09T06:37:06;18.58;;;2.83;;
36133;SDS011;40492;43.524;-1.510;2022-09-09T06:39:33;16.05;;;2.65;;
36133;SDS011;40492;43.524;-1.510;2022-09-09T06:41:59;20.27;;;2.40;;
36133;SDS011;40492;43.524;-1.510;2022-09-09T06:44:25;13.02;;;1.73;;
36133;SDS011;40492;43.524;-1.510;2022-09-09T06:46:52;13.48;;;1.60;;
36133;SDS011;40492;43.524;-1.510;2022-09-09T06:49:18;13.00;;;2.42;;
36133;SDS011;40492;43.524;-1.510;2022-09-09T06:51:44;17.98;;;2.60;;
36133;SDS011;40492;43.524;-1.510;2022-09-09T06:54:11;10.52;;;1.77;;
36133;SDS011;40492;43.524;-1.510;2022-09-09T06:56:41;14.57;;;2.72;;
36133;SDS011;40492;43.524;-1.510;2022-09-09T06:59:08;20.90;;;2.78;;
36133;SDS011;40492;43.524;-1.510;2022-09-09T07:01:36;13.48;;;1.92;;
36133;SDS011;40492;43.524;-1.510;2022-09-09T07:04:04;7.97;;;2.00;;
36133;SDS011;40492;43.524;-1.510;2022-09-09T07:06:42;13.18;;;2.42;;
36133;SDS011;40492;43.524;-1.510;2022-09-09T07:09:11;12.93;;;2.05;;
36133;SDS011;40492;43.524;-1.510;2022-09-09T07:11:41;12.80;;;2.03;;
36133;SDS011;40492;43.524;-1.510;2022-09-09T07:14:09;14.85;;;2.00;;
36133;SDS011;40492;43.524;-1.510;2022-09-09T07:16:38;16.08;;;2.67;;
36133;SDS011;40492;43.524;-1.510;2022-09-09T07:19:05;12.43;;;1.50;;
36133;SDS011;40492;43.524;-1.510;2022-09-09T07:21:31;12.75;;;2.10;;
36133;SDS011;40492;43.524;-1.510;2022-09-09T07:23:58;13.63;;;1.75;;
36133;SDS011;40492;43.524;-1.510;2022-09-09T07:26:29;16.95;;;2.17;;
36133;SDS011;40492;43.524;-1.510;2022-09-09T07:28:55;9.98;;;1.70;;
36133;SDS011;40492;43.524;-1.510;2022-09-09T07:31:35;12.65;;;1.65;;
36133;SDS011;40492;43.524;-1.510;2022-09-09T07:34:02;9.80;;;1.55;;
36133;SDS011;40492;43.524;-1.510;2022-09-09T07:36:31;15.90;;;1.85;;
36133;SDS011;40492;43.524;-1.510;2022-09-09T07:39:03;12.02;;;2.00;;
36133;SDS011;40492;43.524;-1.510;2022-09-09T07:44:03;15.20;;;1.85;;
36133;SDS011;40492;43.524;-1.510;2022-09-09T07:46:36;11.13;;;1.55;;
36133;SDS011;40492;43.524;-1.510;2022-09-09T07:49:10;11.77;;;2.28;;
36133;SDS011;40492;43.524;-1.510;2022-09-09T07:51:40;14.43;;;1.85;;
36133;SDS011;40492;43.524;-1.510;2022-09-09T07:54:11;13.93;;;2.00;;
36133;SDS011;40492;43.524;-1.510;2022-09-09T07:56:42;9.55;;;1.50;;
36133;SDS011;40492;43.524;-1.510;2022-09-09T07:59:08;14.77;;;1.40;;
36133;SDS011;40492;43.524;-1.510;2022-09-09T08:01:37;10.77;;;1.42;;
36133;SDS011;40492;43.524;-1.510;2022-09-09T08:04:05;8.50;;;1.75;;
36133;SDS011;40492;43.524;-1.510;2022-09-09T08:06:37;12.30;;;2.03;;
36133;SDS011;40492;43.524;-1.510;2022-09-09T08:09:05;8.27;;;2.17;;
36133;SDS011;40492;43.524;-1.510;2022-09-09T08:11:32;11.32;;;1.63;;
36133;SDS011;40492;43.524;-1.510;2022-09-09T08:13:59;5.05;;;1.00;;
36133;SDS011;40492;43.524;-1.510;2022-09-09T08:16:26;10.13;;;1.65;;
36133;SDS011;40492;43.524;-1.510;2022-09-09T08:18:57;11.80;;;2.17;;
36133;SDS011;40492;43.524;-1.510;2022-09-09T08:21:25;7.93;;;1.73;;
36133;SDS011;40492;43.524;-1.510;2022-09-09T08:23:53;9.63;;;1.40;;
36133;SDS011;40492;43.524;-1.510;2022-09-09T08:26:21;5.53;;;1.52;;
36133;SDS011;40492;43.524;-1.510;2022-09-09T08:28:50;10.55;;;1.48;;
36133;SDS011;40492;43.524;-1.510;2022-09-09T08:31:18;7.07;;;1.40;;
36133;SDS011;40492;43.524;-1.510;2022-09-09T08:33:46;8.57;;;1.42;;
36133;SDS011;40492;43.524;-1.510;2022-09-09T08:36:14;9.70;;;1.80;;
36133;SDS011;40492;43.524;-1.510;2022-09-09T08:38:42;12.55;;;1.60;;
36133;SDS011;40492;43.524;-1.510;2022-09-09T08:41:20;13.15;;;1.75;;
36133;SDS011;40492;43.524;-1.510;2022-09-09T08:43:51;9.63;;;1.70;;
36133;SDS011;40492;43.524;-1.510;2022-09-09T08:49:21;6.38;;;1.67;;
36133;SDS011;40492;43.524;-1.510;2022-09-09T08:52:19;9.80;;;1.20;;
36133;SDS011;40492;43.524;-1.510;2022-09-09T08:54:59;9.73;;;2.08;;
36133;SDS011;40492;43.524;-1.510;2022-09-09T08:57:46;9.32;;;1.60;;
36133;SDS011;40492;43.524;-1.510;2022-09-09T09:00:15;10.60;;;2.00;;
36133;SDS011;40492;43.524;-1.510;2022-09-09T09:11:39;12.23;;;2.03;;
36133;SDS011;40492;43.524;-1.510;2022-09-09T09:14:10;11.88;;;1.55;;
